sensor_id;sensor_type;location;lat;lon;timestamp;P1;durP1;ratioP1;P2;durP2;ratioP2
70165;SDS011;57541;47.408;18.822;2022-10-31T00:00:07;32.65;;;16.40;;
70165;SDS011;57541;47.408;18.822;2022-10-31T00:00:40;29.13;;;15.38;;
70165;SDS011;57541;47.408;18.822;2022-10-31T00:01:23;30.20;;;15.50;;
70165;SDS011;57541;47.408;18.822;2022-10-31T00:01:56;31.02;;;14.70;;
70165;SDS011;57541;47.408;18.822;2022-10-31T00:02:28;31.73;;;15.77;;
70165;SDS011;57541;47.408;18.822;2022-10-31T00:03:00;27.40;;;13.77;;
70165;SDS011;57541;47.408;18.822;2022-10-31T00:03:32;32.22;;;15.77;;
70165;SDS011;57541;47.408;18.822;2022-10-31T00:04:04;31.35;;;15.23;;
70165;SDS011;57541;47.408;18.822;2022-10-31T00:04:36;30.98;;;15.80;;
70165;SDS011;57541;47.408;18.822;2022-10-31T00:05:07;36.13;;;15.90;;
70165;SDS011;57541;47.408;18.822;2022-10-31T00:05:43;30.05;;;15.90;;
70165;SDS011;57541;47.408;18.822;2022-10-31T00:06:16;31.38;;;15.15;;
70165;SDS011;57541;47.408;18.822;2022-10-31T00:06:51;33.90;;;16.30;;
70165;SDS011;57541;47.408;18.822;2022-10-31T00:07:22;38.00;;;15.65;;
70165;SDS011;57541;47.408;18.822;2022-10-31T00:07:54;33.77;;;16.10;;
70165;SDS011;57541;47.408;18.822;2022-10-31T00:08:25;33.00;;;16.17;;
70165;SDS011;57541;47.408;18.822;2022-10-31T00:08:58;33.72;;;15.95;;
70165;SDS011;57541;47.408;18.822;2022-10-31T00:09:31;31.27;;;15.48;;
70165;SDS011;57541;47.408;18.822;2022-10-31T00:10:02;32.63;;;16.10;;
70165;SDS011;57541;47.408;18.822;2022-10-31T00:10:37;33.20;;;15.80;;
70165;SDS011;57541;47.408;18.822;2022-10-31T00:11:12;33.72;;;16.15;;
70165;SDS011;57541;47.408;18.822;2022-10-31T00:11:43;33.78;;;16.30;;
70165;SDS011;57541;47.408;18.822;2022-10-31T00:12:15;37.17;;;16.75;;
70165;SDS011;57541;47.408;18.822;2022-10-31T00:12:46;30.85;;;16.02;;
70165;SDS011;57541;47.408;18.822;2022-10-31T00:13:18;33.93;;;16.00;;
70165;SDS011;57541;47.408;18.822;2022-10-31T00:13:49;33.40;;;16.73;;
70165;SDS011;57541;47.408;18.822;2022-10-31T00:14:21;31.65;;;16.15;;
70165;SDS011;57541;47.408;18.822;2022-10-31T00:14:53;34.28;;;15.80;;
70165;SDS011;57541;47.408;18.822;2022-10-31T00:15:24;29.95;;;15.95;;
70165;SDS011;57541;47.408;18.822;2022-10-31T00:15:56;34.70;;;16.40;;
70165;SDS011;57541;47.408;18.822;2022-10-31T00:16:28;31.70;;;15.68;;
70165;SDS011;57541;47.408;18.822;2022-10-31T00:17:00;35.63;;;16.10;;
70165;SDS011;57541;47.408;18.822;2022-10-31T00:17:34;33.00;;;16.10;;
70165;SDS011;57541;47.408;18.822;2022-10-31T00:18:07;30.70;;;15.50;;
70165;SDS011;57541;47.408;18.822;2022-10-31T00:18:40;33.77;;;15.90;;
70165;SDS011;57541;47.408;18.822;2022-10-31T00:19:11;31.20;;;15.38;;
70165;SDS011;57541;47.408;18.822;2022-10-31T00:19:43;33.67;;;15.93;;
70165;SDS011;57541;47.408;18.822;2022-10-31T00:20:15;35.05;;;17.05;;
70165;SDS011;57541;47.408;18.822;2022-10-31T00:20:46;33.03;;;16.23;;
70165;SDS011;57541;47.408;18.822;2022-10-31T00:21:18;31.23;;;15.50;;
70165;SDS011;57541;47.408;18.822;2022-10-31T00:21:53;36.40;;;16.27;;
70165;SDS011;57541;47.408;18.822;2022-10-31T00:22:25;32.47;;;15.65;;
70165;SDS011;57541;47.408;18.822;2022-10-31T00:22:57;34.63;;;16.02;;
70165;SDS011;57541;47.408;18.822;2022-10-31T00:23:30;34.65;;;16.05;;
70165;SDS011;57541;47.408;18.822;2022-10-31T00:24:02;33.13;;;15.37;;
70165;SDS011;57541;47.408;18.822;2022-10-31T00:24:34;34.63;;;16.17;;
70165;SDS011;57541;47.408;18.822;2022-10-31T00:25:05;33.53;;;16.67;;
70165;SDS011;57541;47.408;18.822;2022-10-31T00:25:38;36.17;;;16.65;;
70165;SDS011;57541;47.408;18.822;2022-10-31T00:26:10;34.70;;;16.55;;
70165;SDS011;57541;47.408;18.822;2022-10-31T00:26:42;38.85;;;16.42;;
70165;SDS011;57541;47.408;18.822;2022-10-31T00:27:13;37.30;;;17.95;;
70165;SDS011;57541;47.408;18.822;2022-10-31T00:27:45;37.50;;;16.83;;
70165;SDS011;57541;47.408;18.822;2022-10-31T00:28:17;35.40;;;16.20;;
70165;SDS011;57541;47.408;18.822;2022-10-31T00:28:49;36.92;;;17.83;;
70165;SDS011;57541;47.408;18.822;2022-10-31T00:29:22;41.83;;;16.70;;
70165;SDS011;57541;47.408;18.822;2022-10-31T00:29:53;36.05;;;17.30;;
70165;SDS011;57541;47.408;18.822;2022-10-31T00:30:25;37.53;;;17.35;;
70165;SDS011;57541;47.408;18.822;2022-10-31T00:31:04;37.72;;;17.65;;
70165;SDS011;57541;47.408;18.822;2022-10-31T00:31:37;39.65;;;17.63;;
70165;SDS011;57541;47.408;18.822;2022-10-31T00:32:09;36.60;;;17.10;;
70165;SDS011;57541;47.408;18.822;2022-10-31T00:32:41;35.45;;;17.08;;
70165;SDS011;57541;47.408;18.822;2022-10-31T00:33:12;37.63;;;17.27;;
70165;SDS011;57541;47.408;18.822;2022-10-31T00:33:44;38.75;;;16.80;;
70165;SDS011;57541;47.408;18.822;2022-10-31T00:34:15;35.92;;;17.17;;
70165;SDS011;57541;47.408;18.822;2022-10-31T00:34:47;37.17;;;17.30;;
70165;SDS011;57541;47.408;18.822;2022-10-31T00:35:18;40.35;;;17.38;;
70165;SDS011;57541;47.408;18.822;2022-10-31T00:35:50;38.92;;;17.70;;
70165;SDS011;57541;47.408;18.822;2022-10-31T00:36:22;39.55;;;16.90;;
70165;SDS011;57541;47.408;18.822;2022-10-31T00:36:53;38.65;;;17.83;;
70165;SDS011;57541;47.408;18.822;2022-10-31T00:37:26;33.63;;;16.08;;
70165;SDS011;57541;47.408;18.822;2022-10-31T00:37:57;39.00;;;17.48;;
70165;SDS011;57541;47.408;18.822;2022-10-31T00:38:29;38.83;;;17.15;;
70165;SDS011;57541;47.408;18.822;2022-10-31T00:39:01;39.55;;;17.23;;
70165;SDS011;57541;47.408;18.822;2022-10-31T00:39:33;43.03;;;17.25;;
70165;SDS011;57541;47.408;18.822;2022-10-31T00:40:04;39.78;;;17.30;;
70165;SDS011;57541;47.408;18.822;2022-10-31T00:40:37;36.53;;;17.33;;
70165;SDS011;57541;47.408;18.822;2022-10-31T00:41:09;43.10;;;18.02;;
70165;SDS011;57541;47.408;18.822;2022-10-31T00:41:41;47.95;;;18.58;;
70165;SDS011;57541;47.408;18.822;2022-10-31T00:42:13;46.95;;;18.60;;
70165;SDS011;57541;47.408;18.822;2022-10-31T00:42:44;45.17;;;18.33;;
70165;SDS011;57541;47.408;18.822;2022-10-31T00:43:16;41.38;;;17.98;;
70165;SDS011;57541;47.408;18.822;2022-10-31T00:43:47;42.20;;;18.15;;
70165;SDS011;57541;47.408;18.822;2022-10-31T00:44:19;45.35;;;18.95;;
70165;SDS011;57541;47.408;18.822;2022-10-31T00:44:50;45.08;;;18.55;;
70165;SDS011;57541;47.408;18.822;2022-10-31T00:45:22;39.33;;;16.97;;
70165;SDS011;57541;47.408;18.822;2022-10-31T00:45:53;46.00;;;18.80;;
70165;SDS011;57541;47.408;18.822;2022-10-31T00:46:25;43.05;;;17.48;;
70165;SDS011;57541;47.408;18.822;2022-10-31T00:46:56;46.28;;;18.38;;
70165;SDS011;57541;47.408;18.822;2022-10-31T00:47:28;42.42;;;17.95;;
70165;SDS011;57541;47.408;18.822;2022-10-31T00:47:59;44.63;;;18.70;;
70165;SDS011;57541;47.408;18.822;2022-10-31T00:48:32;43.25;;;18.10;;
70165;SDS011;57541;47.408;18.822;2022-10-31T00:49:03;42.83;;;17.60;;
70165;SDS011;57541;47.408;18.822;2022-10-31T00:49:35;46.72;;;18.50;;
70165;SDS011;57541;47.408;18.822;2022-10-31T00:50:07;50.55;;;18.58;;
70165;SDS011;57541;47.408;18.822;2022-10-31T00:50:38;47.43;;;19.20;;
70165;SDS011;57541;47.408;18.822;2022-10-31T00:51:10;48.45;;;20.00;;
70165;SDS011;57541;47.408;18.822;2022-10-31T00:51:42;45.10;;;17.48;;
70165;SDS011;57541;47.408;18.822;2022-10-31T00:52:14;50.00;;;19.42;;
70165;SDS011;57541;47.408;18.822;2022-10-31T00:52:45;50.55;;;19.90;;
70165;SDS011;57541;47.408;18.822;2022-10-31T00:53:17;43.67;;;17.75;;
70165;SDS011;57541;47.408;18.822;2022-10-31T00:53:48;53.13;;;19.83;;
70165;SDS011;57541;47.408;18.822;2022-10-31T00:54:20;49.45;;;19.20;;
70165;SDS011;57541;47.408;18.822;2022-10-31T00:54:51;48.50;;;19.85;;
70165;SDS011;57541;47.408;18.822;2022-10-31T00:55:23;47.85;;;19.58;;
70165;SDS011;57541;47.408;18.822;2022-10-31T00:55:55;47.43;;;20.00;;
70165;SDS011;57541;47.408;18.822;2022-10-31T00:56:26;48.85;;;18.98;;
70165;SDS011;57541;47.408;18.822;2022-10-31T00:56:58;47.90;;;19.40;;
70165;SDS011;57541;47.408;18.822;2022-10-31T00:57:29;51.00;;;19.95;;
70165;SDS011;57541;47.408;18.822;2022-10-31T00:58:01;51.53;;;19.17;;
70165;SDS011;57541;47.408;18.822;2022-10-31T00:58:33;50.58;;;19.65;;
70165;SDS011;57541;47.408;18.822;2022-10-31T00:59:05;47.83;;;19.50;;
70165;SDS011;57541;47.408;18.822;2022-10-31T00:59:36;49.88;;;19.88;;
70165;SDS011;57541;47.408;18.822;2022-10-31T01:00:08;47.50;;;19.90;;
70165;SDS011;57541;47.408;18.822;2022-10-31T01:00:40;49.80;;;19.38;;
70165;SDS011;57541;47.408;18.822;2022-10-31T01:01:11;47.70;;;18.23;;
70165;SDS011;57541;47.408;18.822;2022-10-31T01:01:43;46.90;;;19.08;;
70165;SDS011;57541;47.408;18.822;2022-10-31T01:02:15;47.65;;;18.30;;
70165;SDS011;57541;47.408;18.822;2022-10-31T01:02:47;44.00;;;18.25;;
70165;SDS011;57541;47.408;18.822;2022-10-31T01:03:18;42.35;;;17.20;;
70165;SDS011;57541;47.408;18.822;2022-10-31T01:03:50;45.13;;;17.88;;
70165;SDS011;57541;47.408;18.822;2022-10-31T01:04:22;43.58;;;17.85;;
70165;SDS011;57541;47.408;18.822;2022-10-31T01:04:53;42.83;;;17.42;;
70165;SDS011;57541;47.408;18.822;2022-10-31T01:05:25;41.42;;;17.42;;
70165;SDS011;57541;47.408;18.822;2022-10-31T01:06:33;46.23;;;17.73;;
70165;SDS011;57541;47.408;18.822;2022-10-31T01:07:04;45.08;;;17.95;;
70165;SDS011;57541;47.408;18.822;2022-10-31T01:07:36;46.65;;;18.85;;
70165;SDS011;57541;47.408;18.822;2022-10-31T01:08:09;44.83;;;18.10;;
70165;SDS011;57541;47.408;18.822;2022-10-31T01:08:40;41.60;;;17.27;;
70165;SDS011;57541;47.408;18.822;2022-10-31T01:09:12;46.92;;;18.65;;
70165;SDS011;57541;47.408;18.822;2022-10-31T01:09:43;47.60;;;18.95;;
70165;SDS011;57541;47.408;18.822;2022-10-31T01:10:15;43.60;;;18.45;;
70165;SDS011;57541;47.408;18.822;2022-10-31T01:10:46;45.67;;;18.33;;
70165;SDS011;57541;47.408;18.822;2022-10-31T01:11:45;48.65;;;17.73;;
70165;SDS011;57541;47.408;18.822;2022-10-31T01:12:16;44.97;;;17.30;;
70165;SDS011;57541;47.408;18.822;2022-10-31T01:12:48;44.70;;;17.90;;
70165;SDS011;57541;47.408;18.822;2022-10-31T01:13:20;41.90;;;17.48;;
70165;SDS011;57541;47.408;18.822;2022-10-31T01:13:57;43.95;;;17.65;;
70165;SDS011;57541;47.408;18.822;2022-10-31T01:14:28;44.72;;;18.05;;
70165;SDS011;57541;47.408;18.822;2022-10-31T01:15:00;47.42;;;20.00;;
70165;SDS011;57541;47.408;18.822;2022-10-31T01:15:31;43.72;;;18.85;;
70165;SDS011;57541;47.408;18.822;2022-10-31T01:16:04;43.47;;;17.00;;
70165;SDS011;57541;47.408;18.822;2022-10-31T01:16:36;50.35;;;20.17;;
70165;SDS011;57541;47.408;18.822;2022-10-31T01:17:08;43.92;;;17.58;;
70165;SDS011;57541;47.408;18.822;2022-10-31T01:17:40;48.90;;;18.70;;
70165;SDS011;57541;47.408;18.822;2022-10-31T01:18:11;43.85;;;17.98;;
70165;SDS011;57541;47.408;18.822;2022-10-31T01:18:43;45.45;;;17.75;;
70165;SDS011;57541;47.408;18.822;2022-10-31T01:19:15;46.17;;;18.40;;
70165;SDS011;57541;47.408;18.822;2022-10-31T01:19:46;43.80;;;17.83;;
70165;SDS011;57541;47.408;18.822;2022-10-31T01:20:18;39.50;;;16.92;;
70165;SDS011;57541;47.408;18.822;2022-10-31T01:21:09;43.47;;;17.98;;
70165;SDS011;57541;47.408;18.822;2022-10-31T01:21:43;40.03;;;16.25;;
70165;SDS011;57541;47.408;18.822;2022-10-31T01:22:14;43.00;;;17.60;;
70165;SDS011;57541;47.408;18.822;2022-10-31T01:22:46;41.80;;;17.30;;
70165;SDS011;57541;47.408;18.822;2022-10-31T01:23:17;45.83;;;18.43;;
70165;SDS011;57541;47.408;18.822;2022-10-31T01:23:50;48.90;;;18.70;;
70165;SDS011;57541;47.408;18.822;2022-10-31T01:24:23;43.72;;;18.17;;
70165;SDS011;57541;47.408;18.822;2022-10-31T01:24:55;44.78;;;18.17;;
70165;SDS011;57541;47.408;18.822;2022-10-31T01:25:26;42.33;;;17.58;;
70165;SDS011;57541;47.408;18.822;2022-10-31T01:26:02;43.20;;;18.02;;
70165;SDS011;57541;47.408;18.822;2022-10-31T01:26:36;41.50;;;17.35;;
70165;SDS011;57541;47.408;18.822;2022-10-31T01:27:07;42.97;;;18.08;;
70165;SDS011;57541;47.408;18.822;2022-10-31T01:27:39;43.65;;;17.58;;
70165;SDS011;57541;47.408;18.822;2022-10-31T01:28:11;39.70;;;17.27;;
70165;SDS011;57541;47.408;18.822;2022-10-31T01:28:44;42.83;;;17.33;;
70165;SDS011;57541;47.408;18.822;2022-10-31T01:29:17;43.42;;;17.15;;
70165;SDS011;57541;47.408;18.822;2022-10-31T01:29:49;46.22;;;17.38;;
70165;SDS011;57541;47.408;18.822;2022-10-31T01:30:20;39.72;;;16.40;;
70165;SDS011;57541;47.408;18.822;2022-10-31T01:30:52;38.65;;;17.73;;
70165;SDS011;57541;47.408;18.822;2022-10-31T01:31:25;43.50;;;17.13;;
70165;SDS011;57541;47.408;18.822;2022-10-31T01:31:59;39.67;;;16.65;;
70165;SDS011;57541;47.408;18.822;2022-10-31T01:32:31;42.50;;;17.08;;
70165;SDS011;57541;47.408;18.822;2022-10-31T01:33:03;42.63;;;16.63;;
70165;SDS011;57541;47.408;18.822;2022-10-31T01:33:35;39.38;;;16.35;;
70165;SDS011;57541;47.408;18.822;2022-10-31T01:34:07;41.57;;;17.13;;
70165;SDS011;57541;47.408;18.822;2022-10-31T01:34:40;41.35;;;16.92;;
70165;SDS011;57541;47.408;18.822;2022-10-31T01:35:12;40.90;;;16.13;;
70165;SDS011;57541;47.408;18.822;2022-10-31T01:35:43;40.85;;;16.88;;
70165;SDS011;57541;47.408;18.822;2022-10-31T01:36:46;40.58;;;16.50;;
70165;SDS011;57541;47.408;18.822;2022-10-31T01:37:22;37.97;;;15.35;;
70165;SDS011;57541;47.408;18.822;2022-10-31T01:37:53;40.08;;;15.60;;
70165;SDS011;57541;47.408;18.822;2022-10-31T01:38:25;41.63;;;16.02;;
70165;SDS011;57541;47.408;18.822;2022-10-31T01:38:58;38.17;;;15.15;;
70165;SDS011;57541;47.408;18.822;2022-10-31T01:39:31;35.30;;;15.63;;
70165;SDS011;57541;47.408;18.822;2022-10-31T01:40:03;35.38;;;14.70;;
70165;SDS011;57541;47.408;18.822;2022-10-31T01:40:35;36.55;;;16.05;;
70165;SDS011;57541;47.408;18.822;2022-10-31T01:41:06;37.13;;;14.43;;
70165;SDS011;57541;47.408;18.822;2022-10-31T01:41:40;35.38;;;15.25;;
70165;SDS011;57541;47.408;18.822;2022-10-31T01:42:20;35.55;;;14.90;;
70165;SDS011;57541;47.408;18.822;2022-10-31T01:42:53;37.00;;;14.82;;
70165;SDS011;57541;47.408;18.822;2022-10-31T01:43:30;32.30;;;13.65;;
70165;SDS011;57541;47.408;18.822;2022-10-31T01:44:55;33.42;;;14.05;;
70165;SDS011;57541;47.408;18.822;2022-10-31T01:45:29;34.40;;;14.80;;
70165;SDS011;57541;47.408;18.822;2022-10-31T01:46:01;32.90;;;13.88;;
70165;SDS011;57541;47.408;18.822;2022-10-31T01:46:33;36.38;;;14.60;;
70165;SDS011;57541;47.408;18.822;2022-10-31T01:47:13;35.50;;;14.40;;
70165;SDS011;57541;47.408;18.822;2022-10-31T01:47:48;34.17;;;14.70;;
70165;SDS011;57541;47.408;18.822;2022-10-31T01:48:21;33.42;;;14.63;;
70165;SDS011;57541;47.408;18.822;2022-10-31T01:48:59;34.38;;;14.88;;
70165;SDS011;57541;47.408;18.822;2022-10-31T01:49:43;33.95;;;14.30;;
70165;SDS011;57541;47.408;18.822;2022-10-31T01:50:31;32.97;;;13.85;;
70165;SDS011;57541;47.408;18.822;2022-10-31T01:51:08;31.55;;;13.23;;
70165;SDS011;57541;47.408;18.822;2022-10-31T01:51:50;35.00;;;14.50;;
70165;SDS011;57541;47.408;18.822;2022-10-31T01:52:38;30.73;;;13.18;;
70165;SDS011;57541;47.408;18.822;2022-10-31T01:53:12;30.85;;;13.52;;
70165;SDS011;57541;47.408;18.822;2022-10-31T01:53:44;33.88;;;13.85;;
70165;SDS011;57541;47.408;18.822;2022-10-31T01:54:17;35.40;;;14.55;;
70165;SDS011;57541;47.408;18.822;2022-10-31T01:54:53;32.45;;;14.48;;
70165;SDS011;57541;47.408;18.822;2022-10-31T01:55:50;34.72;;;15.07;;
70165;SDS011;57541;47.408;18.822;2022-10-31T01:56:22;32.88;;;13.90;;
70165;SDS011;57541;47.408;18.822;2022-10-31T01:56:54;33.72;;;14.45;;
70165;SDS011;57541;47.408;18.822;2022-10-31T01:57:29;31.20;;;13.85;;
70165;SDS011;57541;47.408;18.822;2022-10-31T01:58:05;32.87;;;14.47;;
70165;SDS011;57541;47.408;18.822;2022-10-31T01:58:40;35.30;;;13.65;;
70165;SDS011;57541;47.408;18.822;2022-10-31T01:59:13;33.20;;;13.70;;
70165;SDS011;57541;47.408;18.822;2022-10-31T01:59:49;31.98;;;14.23;;
70165;SDS011;57541;47.408;18.822;2022-10-31T02:01:06;32.22;;;13.38;;
70165;SDS011;57541;47.408;18.822;2022-10-31T02:01:38;31.30;;;14.07;;
70165;SDS011;57541;47.408;18.822;2022-10-31T02:02:10;33.47;;;14.18;;
70165;SDS011;57541;47.408;18.822;2022-10-31T02:02:43;33.67;;;14.40;;
70165;SDS011;57541;47.408;18.822;2022-10-31T02:03:17;32.80;;;14.27;;
70165;SDS011;57541;47.408;18.822;2022-10-31T02:03:50;34.13;;;14.03;;
70165;SDS011;57541;47.408;18.822;2022-10-31T02:04:23;34.08;;;13.73;;
70165;SDS011;57541;47.408;18.822;2022-10-31T02:04:55;37.25;;;14.48;;
70165;SDS011;57541;47.408;18.822;2022-10-31T02:05:28;32.35;;;14.30;;
70165;SDS011;57541;47.408;18.822;2022-10-31T02:06:01;34.10;;;14.25;;
70165;SDS011;57541;47.408;18.822;2022-10-31T02:07:13;30.67;;;13.50;;
70165;SDS011;57541;47.408;18.822;2022-10-31T02:08:23;34.38;;;14.05;;
70165;SDS011;57541;47.408;18.822;2022-10-31T02:09:01;30.35;;;13.50;;
70165;SDS011;57541;47.408;18.822;2022-10-31T02:09:34;29.00;;;12.97;;
70165;SDS011;57541;47.408;18.822;2022-10-31T02:10:08;28.95;;;12.50;;
70165;SDS011;57541;47.408;18.822;2022-10-31T02:10:39;27.52;;;12.82;;
70165;SDS011;57541;47.408;18.822;2022-10-31T02:11:11;27.02;;;12.63;;
70165;SDS011;57541;47.408;18.822;2022-10-31T02:11:43;24.92;;;12.13;;
70165;SDS011;57541;47.408;18.822;2022-10-31T02:12:15;28.98;;;13.07;;
70165;SDS011;57541;47.408;18.822;2022-10-31T02:12:50;25.80;;;12.32;;
70165;SDS011;57541;47.408;18.822;2022-10-31T02:13:24;25.92;;;12.77;;
70165;SDS011;57541;47.408;18.822;2022-10-31T02:13:58;26.67;;;11.85;;
70165;SDS011;57541;47.408;18.822;2022-10-31T02:14:31;28.98;;;12.32;;
70165;SDS011;57541;47.408;18.822;2022-10-31T02:15:03;26.90;;;12.93;;
70165;SDS011;57541;47.408;18.822;2022-10-31T02:15:36;26.92;;;12.55;;
70165;SDS011;57541;47.408;18.822;2022-10-31T02:16:09;30.58;;;13.20;;
70165;SDS011;57541;47.408;18.822;2022-10-31T02:16:40;28.45;;;13.35;;
70165;SDS011;57541;47.408;18.822;2022-10-31T02:17:12;27.15;;;12.27;;
70165;SDS011;57541;47.408;18.822;2022-10-31T02:17:44;29.60;;;12.88;;
70165;SDS011;57541;47.408;18.822;2022-10-31T02:18:17;26.45;;;12.88;;
70165;SDS011;57541;47.408;18.822;2022-10-31T02:18:49;28.20;;;12.77;;
70165;SDS011;57541;47.408;18.822;2022-10-31T02:19:25;27.83;;;12.70;;
70165;SDS011;57541;47.408;18.822;2022-10-31T02:20:12;28.77;;;13.18;;
70165;SDS011;57541;47.408;18.822;2022-10-31T02:21:59;24.33;;;11.13;;
70165;SDS011;57541;47.408;18.822;2022-10-31T02:22:59;24.42;;;11.35;;
70165;SDS011;57541;47.408;18.822;2022-10-31T02:25:19;28.40;;;12.27;;
70165;SDS011;57541;47.408;18.822;2022-10-31T02:27:07;29.35;;;12.00;;
70165;SDS011;57541;47.408;18.822;2022-10-31T02:31:20;28.23;;;12.63;;
70165;SDS011;57541;47.408;18.822;2022-10-31T02:33:43;28.55;;;11.80;;
70165;SDS011;57541;47.408;18.822;2022-10-31T02:34:22;27.83;;;11.57;;
70165;SDS011;57541;47.408;18.822;2022-10-31T02:35:43;26.90;;;11.95;;
70165;SDS011;57541;47.408;18.822;2022-10-31T02:37:10;27.75;;;11.88;;
70165;SDS011;57541;47.408;18.822;2022-10-31T02:38:19;28.40;;;12.90;;
70165;SDS011;57541;47.408;18.822;2022-10-31T02:38:57;28.20;;;13.02;;
70165;SDS011;57541;47.408;18.822;2022-10-31T02:41:46;29.08;;;11.98;;
70165;SDS011;57541;47.408;18.822;2022-10-31T02:43:33;25.83;;;11.73;;
70165;SDS011;57541;47.408;18.822;2022-10-31T02:44:37;26.73;;;11.98;;
70165;SDS011;57541;47.408;18.822;2022-10-31T02:45:29;26.98;;;11.93;;
70165;SDS011;57541;47.408;18.822;2022-10-31T02:46:08;30.13;;;11.30;;
70165;SDS011;57541;47.408;18.822;2022-10-31T02:46:50;28.50;;;11.82;;
70165;SDS011;57541;47.408;18.822;2022-10-31T02:47:27;28.05;;;12.10;;
70165;SDS011;57541;47.408;18.822;2022-10-31T02:48:08;27.10;;;12.05;;
70165;SDS011;57541;47.408;18.822;2022-10-31T02:48:44;30.23;;;12.52;;
70165;SDS011;57541;47.408;18.822;2022-10-31T02:50:06;23.08;;;11.05;;
70165;SDS011;57541;47.408;18.822;2022-10-31T02:50:39;26.65;;;11.43;;
70165;SDS011;57541;47.408;18.822;2022-10-31T02:51:14;24.27;;;11.88;;
70165;SDS011;57541;47.408;18.822;2022-10-31T02:51:47;26.25;;;11.93;;
70165;SDS011;57541;47.408;18.822;2022-10-31T02:52:26;24.30;;;11.35;;
70165;SDS011;57541;47.408;18.822;2022-10-31T02:53:00;26.42;;;11.82;;
70165;SDS011;57541;47.408;18.822;2022-10-31T02:53:33;23.83;;;11.50;;
70165;SDS011;57541;47.408;18.822;2022-10-31T02:54:14;22.15;;;11.13;;
70165;SDS011;57541;47.408;18.822;2022-10-31T02:54:58;23.05;;;10.73;;
70165;SDS011;57541;47.408;18.822;2022-10-31T02:56:02;24.35;;;11.40;;
70165;SDS011;57541;47.408;18.822;2022-10-31T02:56:38;21.35;;;10.50;;
70165;SDS011;57541;47.408;18.822;2022-10-31T02:57:09;22.45;;;10.98;;
70165;SDS011;57541;47.408;18.822;2022-10-31T02:57:41;24.27;;;11.68;;
70165;SDS011;57541;47.408;18.822;2022-10-31T02:58:14;22.60;;;10.63;;
70165;SDS011;57541;47.408;18.822;2022-10-31T02:58:51;24.43;;;11.00;;
70165;SDS011;57541;47.408;18.822;2022-10-31T02:59:27;22.17;;;10.85;;
70165;SDS011;57541;47.408;18.822;2022-10-31T03:00:03;24.08;;;10.68;;
70165;SDS011;57541;47.408;18.822;2022-10-31T03:00:43;22.58;;;11.13;;
70165;SDS011;57541;47.408;18.822;2022-10-31T03:01:45;23.02;;;9.85;;
70165;SDS011;57541;47.408;18.822;2022-10-31T03:05:45;20.05;;;10.20;;
70165;SDS011;57541;47.408;18.822;2022-10-31T03:06:49;22.97;;;10.33;;
70165;SDS011;57541;47.408;18.822;2022-10-31T03:09:24;20.27;;;9.70;;
70165;SDS011;57541;47.408;18.822;2022-10-31T03:10:59;22.55;;;9.85;;
70165;SDS011;57541;47.408;18.822;2022-10-31T03:11:36;22.70;;;10.20;;
70165;SDS011;57541;47.408;18.822;2022-10-31T03:12:28;21.42;;;9.57;;
70165;SDS011;57541;47.408;18.822;2022-10-31T03:13:08;23.90;;;9.77;;
70165;SDS011;57541;47.408;18.822;2022-10-31T03:13:45;23.35;;;9.55;;
70165;SDS011;57541;47.408;18.822;2022-10-31T03:14:29;21.33;;;10.90;;
70165;SDS011;57541;47.408;18.822;2022-10-31T03:15:12;23.80;;;10.00;;
70165;SDS011;57541;47.408;18.822;2022-10-31T03:15:53;23.30;;;10.27;;
70165;SDS011;57541;47.408;18.822;2022-10-31T03:17:20;21.17;;;10.43;;
70165;SDS011;57541;47.408;18.822;2022-10-31T03:18:52;25.20;;;10.80;;
70165;SDS011;57541;47.408;18.822;2022-10-31T03:19:29;23.98;;;10.98;;
70165;SDS011;57541;47.408;18.822;2022-10-31T03:20:06;20.15;;;9.98;;
70165;SDS011;57541;47.408;18.822;2022-10-31T03:21:30;22.73;;;10.40;;
70165;SDS011;57541;47.408;18.822;2022-10-31T03:22:16;21.15;;;10.02;;
70165;SDS011;57541;47.408;18.822;2022-10-31T03:22:52;21.75;;;9.48;;
70165;SDS011;57541;47.408;18.822;2022-10-31T03:23:25;20.88;;;10.65;;
70165;SDS011;57541;47.408;18.822;2022-10-31T03:23:59;21.33;;;10.52;;
70165;SDS011;57541;47.408;18.822;2022-10-31T03:24:34;25.15;;;10.57;;
70165;SDS011;57541;47.408;18.822;2022-10-31T03:25:09;23.10;;;10.50;;
70165;SDS011;57541;47.408;18.822;2022-10-31T03:25:43;22.63;;;11.23;;
70165;SDS011;57541;47.408;18.822;2022-10-31T03:26:16;21.83;;;11.50;;
70165;SDS011;57541;47.408;18.822;2022-10-31T03:26:49;22.05;;;10.63;;
70165;SDS011;57541;47.408;18.822;2022-10-31T03:27:25;22.43;;;10.27;;
70165;SDS011;57541;47.408;18.822;2022-10-31T03:27:59;22.60;;;10.63;;
70165;SDS011;57541;47.408;18.822;2022-10-31T03:28:37;20.17;;;10.32;;
70165;SDS011;57541;47.408;18.822;2022-10-31T03:29:15;22.33;;;10.98;;
70165;SDS011;57541;47.408;18.822;2022-10-31T03:29:50;21.02;;;10.40;;
70165;SDS011;57541;47.408;18.822;2022-10-31T03:30:29;21.05;;;9.98;;
70165;SDS011;57541;47.408;18.822;2022-10-31T03:31:02;23.02;;;11.13;;
70165;SDS011;57541;47.408;18.822;2022-10-31T03:31:39;21.65;;;10.77;;
70165;SDS011;57541;47.408;18.822;2022-10-31T03:32:24;19.98;;;10.70;;
70165;SDS011;57541;47.408;18.822;2022-10-31T03:33:02;22.77;;;10.07;;
70165;SDS011;57541;47.408;18.822;2022-10-31T03:33:37;21.60;;;10.43;;
70165;SDS011;57541;47.408;18.822;2022-10-31T03:34:10;21.80;;;10.60;;
70165;SDS011;57541;47.408;18.822;2022-10-31T03:34:44;18.77;;;9.30;;
70165;SDS011;57541;47.408;18.822;2022-10-31T03:35:17;21.15;;;10.63;;
70165;SDS011;57541;47.408;18.822;2022-10-31T03:35:52;21.10;;;10.50;;
70165;SDS011;57541;47.408;18.822;2022-10-31T03:36:26;19.80;;;9.90;;
70165;SDS011;57541;47.408;18.822;2022-10-31T03:37:02;21.48;;;10.23;;
70165;SDS011;57541;47.408;18.822;2022-10-31T03:37:37;20.85;;;10.32;;
70165;SDS011;57541;47.408;18.822;2022-10-31T03:38:10;21.17;;;10.82;;
70165;SDS011;57541;47.408;18.822;2022-10-31T03:38:42;19.98;;;10.02;;
70165;SDS011;57541;47.408;18.822;2022-10-31T03:39:17;20.33;;;10.50;;
70165;SDS011;57541;47.408;18.822;2022-10-31T03:39:51;20.85;;;10.48;;
70165;SDS011;57541;47.408;18.822;2022-10-31T03:40:24;20.30;;;10.50;;
70165;SDS011;57541;47.408;18.822;2022-10-31T03:40:58;21.10;;;10.50;;
70165;SDS011;57541;47.408;18.822;2022-10-31T03:41:32;22.73;;;10.25;;
70165;SDS011;57541;47.408;18.822;2022-10-31T03:42:11;19.30;;;9.52;;
70165;SDS011;57541;47.408;18.822;2022-10-31T03:43:00;19.60;;;9.73;;
70165;SDS011;57541;47.408;18.822;2022-10-31T03:43:40;19.80;;;10.27;;
70165;SDS011;57541;47.408;18.822;2022-10-31T03:44:17;20.38;;;10.15;;
70165;SDS011;57541;47.408;18.822;2022-10-31T03:44:59;21.13;;;9.85;;
70165;SDS011;57541;47.408;18.822;2022-10-31T03:45:39;21.03;;;10.03;;
70165;SDS011;57541;47.408;18.822;2022-10-31T03:46:14;21.73;;;10.23;;
70165;SDS011;57541;47.408;18.822;2022-10-31T03:46:46;20.15;;;9.93;;
70165;SDS011;57541;47.408;18.822;2022-10-31T03:47:17;20.38;;;10.13;;